Time;durP1;ratioP1;P1;durP2;ratioP2;P2;SDS_P1;SDS_P2;PMS_P1;PMS_P2;Temp;Humidity;BMP_temperature;BMP_pressure;BME280_temperature;BME280_humidity;BME280_pressure;Samples;Min_cycle;Max_cycle;Signal;HPM_P1;HPM_P2
2022/02/25 00:00:45;;;;;;;;;78.50;62.25;11.90;35.90;;;;;;4920610;29;8796;-66
2022/02/25 00:03:13;;;;;;;;;73.00;58.75;11.90;36.00;;;;;;4920605;29;8783;-67
2022/02/25 00:05:39;;;;;;;;;73.25;57.00;11.90;36.20;;;;;;4920748;29;8805;-67
2022/02/25 00:08:05;;;;;;;;;74.00;60.00;11.80;36.10;;;;;;4920551;29;8771;-68
2022/02/25 00:10:31;;;;;;;;;75.00;60.00;11.80;36.20;;;;;;4920552;29;8807;-68
2022/02/25 00:12:57;;;;;;;;;74.25;60.25;11.70;36.30;;;;;;4919890;29;8791;-65
2022/02/25 00:15:23;;;;;;;;;70.50;57.50;11.30;36.90;;;;;;4918623;29;8872;-67
2022/02/25 00:17:49;;;;;;;;;71.75;57.75;11.40;36.80;;;;;;4919679;29;9461;-67
2022/02/25 00:20:15;;;;;;;;;73.00;57.50;11.40;36.70;;;;;;4920780;29;8791;-67
2022/02/25 00:22:41;;;;;;;;;63.00;51.75;11.30;37.20;;;;;;4919985;29;8819;-66
2022/02/25 00:25:09;;;;;;;;;68.25;53.50;11.30;37.30;;;;;;4920603;29;8811;-68
2022/02/25 00:27:38;;;;;;;;;66.75;51.75;11.10;38.10;;;;;;4920835;29;8787;-69
2022/02/25 00:30:05;;;;;;;;;69.00;55.75;11.10;38.10;;;;;;4920968;29;8822;-67
2022/02/25 00:32:31;;;;;;;;;74.75;60.25;11.30;37.80;;;;;;4903899;29;8807;-66
2022/02/25 00:34:56;;;;;;;;;83.50;66.75;11.40;37.90;;;;;;4919678;29;8807;-66
2022/02/25 00:37:22;;;;;;;;;84.25;69.50;11.30;37.40;;;;;;4920898;29;8906;-67
2022/02/25 00:39:48;;;;;;;;;81.25;63.25;11.10;37.60;;;;;;4920595;29;8815;-67
2022/02/25 00:42:14;;;;;;;;;80.25;62.00;11.10;37.50;;;;;;4920544;29;8874;-66
2022/02/25 00:44:39;;;;;;;;;82.00;65.00;11.20;37.10;;;;;;4920546;29;8823;-67
2022/02/25 00:47:06;;;;;;;;;79.00;61.50;11.30;36.80;;;;;;4920702;29;8811;-67
2022/02/25 00:49:32;;;;;;;;;76.75;61.25;11.10;36.90;;;;;;4919329;29;8783;-67
2022/02/25 00:51:58;;;;;;;;;76.75;58.00;11.00;37.00;;;;;;4920544;29;9001;-66
2022/02/25 00:54:24;;;;;;;;;77.00;60.50;10.90;37.60;;;;;;4920404;29;8819;-68
2022/02/25 00:56:49;;;;;;;;;80.00;61.25;10.90;37.80;;;;;;4920061;29;8788;-67
2022/02/25 00:59:15;;;;;;;;;80.00;62.00;10.90;37.20;;;;;;4920366;29;8883;-65
2022/02/25 01:01:42;;;;;;;;;82.00;63.75;11.00;37.30;;;;;;4918830;29;8816;-67
2022/02/25 01:04:08;;;;;;;;;85.00;66.00;11.10;37.10;;;;;;4919868;29;8802;-67
2022/02/25 01:06:34;;;;;;;;;82.25;65.50;11.10;37.30;;;;;;4920127;29;8780;-66
2022/02/25 01:09:00;;;;;;;;;88.00;74.00;11.00;37.10;;;;;;4920129;29;8817;-66
2022/02/25 01:11:25;;;;;;;;;97.25;87.25;11.00;37.10;;;;;;4919935;29;8831;-68
2022/02/25 01:13:51;;;;;;;;;102.50;94.75;10.90;37.30;;;;;;4919973;29;8783;-67
2022/02/25 01:16:17;;;;;;;;;107.50;99.25;10.90;37.70;;;;;;4919924;29;8813;-66
2022/02/25 01:18:43;;;;;;;;;113.50;102.75;11.00;37.60;;;;;;4919506;29;8784;-67
2022/02/25 01:21:08;;;;;;;;;108.25;94.75;11.00;37.50;;;;;;4918557;29;9431;-64
2022/02/25 01:23:34;;;;;;;;;96.75;88.50;11.10;37.10;;;;;;4919682;29;8894;-66
2022/02/25 01:26:01;;;;;;;;;98.00;85.75;11.20;37.10;;;;;;4919602;29;8799;-67
2022/02/25 01:28:27;;;;;;;;;96.50;80.00;11.20;37.30;;;;;;4919636;29;8779;-66
2022/02/25 01:30:53;;;;;;;;;88.25;69.25;11.30;37.10;;;;;;4919840;29;8914;-66
2022/02/25 01:33:18;;;;;;;;;60.25;48.75;11.30;37.60;;;;;;4919569;29;8906;-65
2022/02/25 01:35:44;;;;;;;;;71.50;58.25;11.30;37.90;;;;;;4919648;29;8783;-67
2022/02/25 01:38:10;;;;;;;;;77.25;59.50;11.10;38.50;;;;;;4919562;29;8787;-67
2022/02/25 01:40:36;;;;;;;;;77.75;60.00;11.10;38.80;;;;;;4918549;29;8834;-67
2022/02/25 01:43:02;;;;;;;;;74.25;60.50;11.20;38.90;;;;;;4919680;29;8779;-67
2022/02/25 01:45:29;;;;;;;;;70.50;57.00;10.90;39.90;;;;;;4919758;29;8784;-67
2022/02/25 01:47:55;;;;;;;;;75.50;61.75;10.70;40.40;;;;;;4919659;29;8783;-66
2022/02/25 01:50:21;;;;;;;;;77.25;60.75;10.50;41.10;;;;;;4919580;29;8841;-67
2022/02/25 01:53:02;;;;;;;;;73.75;56.00;10.30;41.50;;;;;;4919552;29;8827;-68
2022/02/25 01:55:30;;;;;;;;;78.00;61.00;10.30;41.70;;;;;;4919505;29;8814;-67
2022/02/25 01:57:55;;;;;;;;;76.75;62.25;9.80;42.00;;;;;;4919198;29;8820;-67
2022/02/25 02:00:21;;;;;;;;;82.00;64.25;9.70;42.60;;;;;;4919214;29;8795;-66
2022/02/25 02:02:48;;;;;;;;;89.00;69.75;9.70;42.50;;;;;;4919147;29;8783;-67
2022/02/25 02:05:15;;;;;;;;;96.00;84.00;9.80;41.70;;;;;;4919380;29;8791;-67
2022/02/25 02:07:40;;;;;;;;;95.75;86.50;9.60;41.70;;;;;;4919055;29;8771;-66
2022/02/25 02:10:07;;;;;;;;;107.00;98.00;9.30;41.40;;;;;;4919148;29;8862;-65
2022/02/25 02:12:33;;;;;;;;;94.25;80.75;9.50;40.80;;;;;;4918870;29;8803;-67
2022/02/25 02:14:59;;;;;;;;;102.75;88.75;9.80;39.80;;;;;;4918911;29;8798;-68
2022/02/25 02:17:25;;;;;;;;;97.25;84.75;9.90;39.30;;;;;;4918857;29;8913;-67
2022/02/25 02:19:50;;;;;;;;;96.50;84.50;9.90;39.30;;;;;;4918753;29;8779;-67
2022/02/25 02:22:22;;;;;;;;;97.75;84.00;9.90;39.20;;;;;;4918852;29;8811;-67
2022/02/25 02:24:48;;;;;;;;;98.00;89.75;10.10;39.00;;;;;;4918829;29;8822;-67
2022/02/25 02:27:14;;;;;;;;;102.50;96.00;9.80;39.30;;;;;;4918667;29;8803;-66
2022/02/25 02:29:40;;;;;;;;;112.00;102.25;9.50;40.10;;;;;;4918894;29;8787;-66
2022/02/25 02:32:06;;;;;;;;;108.25;94.75;9.10;41.20;;;;;;4918438;29;8799;-65
2022/02/25 02:34:31;;;;;;;;;123.25;108.75;8.90;41.40;;;;;;4918861;29;8788;-66
2022/02/25 02:36:57;;;;;;;;;105.25;97.25;8.80;42.20;;;;;;4918478;29;9250;-65
2022/02/25 02:39:23;;;;;;;;;106.00;93.50;9.00;41.60;;;;;;4918501;29;8783;-67
2022/02/25 02:41:49;;;;;;;;;102.50;91.25;8.80;42.00;;;;;;4918423;29;8787;-66
2022/02/25 02:44:15;;;;;;;;;97.00;80.50;8.90;41.80;;;;;;4918471;29;8894;-66
2022/02/25 02:46:41;;;;;;;;;98.50;86.75;9.10;41.30;;;;;;4918618;29;8783;-68
2022/02/25 02:49:08;;;;;;;;;95.25;75.75;9.50;40.90;;;;;;4917443;29;8791;-65
2022/02/25 02:51:33;;;;;;;;;99.00;84.25;9.70;40.70;;;;;;4918367;29;8857;-67
2022/02/25 02:53:59;;;;;;;;;93.50;82.75;10.00;40.30;;;;;;4918310;29;8787;-68
2022/02/25 02:56:26;;;;;;;;;94.00;80.75;10.10;39.90;;;;;;4918519;29;8788;-67
2022/02/25 02:58:55;;;;;;;;;93.50;76.75;10.20;39.40;;;;;;4918247;29;8782;-66
2022/02/25 03:01:27;;;;;;;;;90.50;75.25;10.20;39.20;;;;;;4918257;29;8775;-65
2022/02/25 03:03:53;;;;;;;;;90.00;72.50;10.20;39.10;;;;;;4918174;29;8775;-67
2022/02/25 03:06:20;;;;;;;;;97.00;79.75;10.00;39.50;;;;;;4918178;29;8964;-67
2022/02/25 03:08:46;;;;;;;;;106.00;93.50;10.00;39.60;;;;;;4918173;29;8806;-66
2022/02/25 03:11:12;;;;;;;;;95.25;81.75;10.00;39.90;;;;;;4917650;29;8808;-64
2022/02/25 03:13:38;;;;;;;;;98.50;84.25;10.20;39.80;;;;;;4918137;29;8787;-67
2022/02/25 03:16:04;;;;;;;;;99.75;88.00;9.90;40.30;;;;;;4918041;29;8797;-66
2022/02/25 03:18:30;;;;;;;;;100.00;89.50;9.60;41.30;;;;;;4917992;29;8795;-68
2022/02/25 03:20:56;;;;;;;;;104.75;91.25;9.60;41.30;;;;;;4918174;29;8803;-67
2022/02/25 03:23:22;;;;;;;;;105.50;93.75;9.80;41.00;;;;;;4917909;29;8803;-66
2022/02/25 03:25:47;;;;;;;;;104.75;88.25;9.90;40.40;;;;;;4917960;29;8826;-65
2022/02/25 03:28:13;;;;;;;;;105.00;92.00;9.70;40.50;;;;;;4917900;29;8783;-67
2022/02/25 03:30:39;;;;;;;;;103.75;93.75;9.60;41.00;;;;;;4917120;29;8892;-68
2022/02/25 03:33:05;;;;;;;;;104.50;96.00;9.40;41.70;;;;;;4917629;29;8819;-67
2022/02/25 03:35:32;;;;;;;;;110.50;102.75;9.30;42.00;;;;;;4918128;29;8783;-67
2022/02/25 03:37:59;;;;;;;;;111.25;100.00;9.00;42.40;;;;;;4917950;29;8791;-65
2022/02/25 03:40:27;;;;;;;;;124.75;110.75;9.00;42.80;;;;;;4918111;29;8795;-66
2022/02/25 03:42:53;;;;;;;;;110.25;103.75;9.10;42.90;;;;;;4917782;29;8783;-67
2022/02/25 03:45:19;;;;;;;;;93.50;77.00;8.70;43.10;;;;;;4917809;29;8814;-67
2022/02/25 03:47:45;;;;;;;;;101.25;87.75;8.00;45.80;;;;;;4918014;29;8779;-67
2022/02/25 03:50:11;;;;;;;;;94.75;81.25;7.40;48.40;;;;;;4917678;29;9653;-66
2022/02/25 03:52:38;;;;;;;;;100.75;89.25;7.80;48.30;;;;;;4917641;29;8897;-66
2022/02/25 03:55:06;;;;;;;;;95.00;80.00;7.90;48.40;;;;;;4917770;29;9372;-65
2022/02/25 03:57:32;;;;;;;;;92.50;79.25;8.10;48.50;;;;;;4917912;29;8767;-66
2022/02/25 03:59:58;;;;;;;;;93.25;72.75;8.40;48.10;;;;;;4917748;29;8798;-66
2022/02/25 04:02:24;;;;;;;;;93.75;73.50;8.50;47.80;;;;;;4917645;29;8787;-66
2022/02/25 04:04:50;;;;;;;;;89.75;73.00;8.30;48.00;;;;;;4917823;29;8791;-66
2022/02/25 04:07:15;;;;;;;;;84.00;64.50;8.40;47.60;;;;;;4917581;29;8795;-66
2022/02/25 04:09:41;;;;;;;;;90.75;71.50;8.50;46.80;;;;;;4917521;29;8857;-66
2022/02/25 04:12:07;;;;;;;;;92.75;74.00;8.60;46.50;;;;;;4917539;29;8909;-65
2022/02/25 04:14:33;;;;;;;;;98.25;79.25;8.90;45.10;;;;;;4917547;29;8783;-66
2022/02/25 04:16:59;;;;;;;;;114.00;104.50;9.00;44.50;;;;;;4917600;29;8910;-66
2022/02/25 04:19:25;;;;;;;;;107.25;93.75;8.50;44.90;;;;;;4917587;29;8816;-65
2022/02/25 04:21:50;;;;;;;;;98.50;88.25;8.40;45.90;;;;;;4917468;29;8918;-65
2022/02/25 04:24:16;;;;;;;;;98.25;88.25;8.40;45.90;;;;;;4920515;29;8775;-67
2022/02/25 04:26:42;;;;;;;;;97.50;80.50;8.40;45.50;;;;;;4921136;29;8918;-65
2022/02/25 04:29:10;;;;;;;;;90.75;70.25;8.50;45.30;;;;;;4921119;29;8878;-65
2022/02/25 04:31:36;;;;;;;;;88.50;68.00;8.70;45.00;;;;;;4904222;29;8827;-66
2022/02/25 04:34:01;;;;;;;;;81.50;66.50;8.90;44.50;;;;;;4920644;29;8831;-67
2022/02/25 04:36:27;;;;;;;;;84.50;67.75;9.10;44.20;;;;;;4920680;29;8826;-66
2022/02/25 04:38:53;;;;;;;;;88.75;69.75;9.20;43.60;;;;;;4920504;29;8792;-65
2022/02/25 04:41:20;;;;;;;;;91.75;75.25;9.00;43.90;;;;;;4920557;29;8803;-66
2022/02/25 04:43:47;;;;;;;;;93.25;72.25;8.70;44.50;;;;;;4921015;29;8800;-65
2022/02/25 04:46:23;;;;;;;;;80.75;63.25;8.30;45.40;;;;;;4920556;29;8785;-66
2022/02/25 04:48:49;;;;;;;;;99.25;78.00;8.30;45.90;;;;;;4920530;29;8775;-67
2022/02/25 04:51:18;;;;;;;;;103.50;89.75;7.70;46.60;;;;;;4920370;29;8815;-65
2022/02/25 04:53:46;;;;;;;;;101.00;84.75;7.60;47.60;;;;;;4920633;29;8811;-66
2022/02/25 04:56:13;;;;;;;;;96.75;81.75;7.30;48.60;;;;;;4917463;29;9446;-67
2022/02/25 04:58:39;;;;;;;;;96.75;79.00;7.50;48.00;;;;;;4920283;29;8799;-67
2022/02/25 05:01:06;;;;;;;;;95.00;84.75;7.50;48.30;;;;;;4920281;29;8791;-66
2022/02/25 05:03:32;;;;;;;;;101.75;90.25;7.80;47.90;;;;;;4920404;29;8806;-67
2022/02/25 05:05:59;;;;;;;;;92.00;77.75;7.50;48.00;;;;;;4920419;29;8798;-66
2022/02/25 05:08:25;;;;;;;;;107.25;98.25;8.00;46.90;;;;;;4920173;29;8799;-68
2022/02/25 05:10:52;;;;;;;;;106.00;97.25;8.40;46.10;;;;;;4920014;29;8913;-67
2022/02/25 05:13:18;;;;;;;;;103.00;91.25;8.30;45.90;;;;;;4920092;29;8865;-67
2022/02/25 05:21:13;;;;;;;;;111.50;101.25;7.90;46.80;;;;;;4920111;29;8886;-67
2022/02/25 05:23:38;;;;;;;;;107.75;100.75;8.20;46.40;;;;;;4920461;29;8962;-66
2022/02/25 05:26:04;;;;;;;;;121.25;107.75;8.60;45.80;;;;;;4903190;29;8783;-65
2022/02/25 05:28:30;;;;;;;;;144.25;132.00;8.50;45.20;;;;;;4919866;29;9402;-67
2022/02/25 05:30:56;;;;;;;;;136.00;127.25;8.40;45.90;;;;;;4919663;29;8925;-65
2022/02/25 05:33:22;;;;;;;;;103.50;92.00;8.50;45.70;;;;;;4902886;29;8819;-65
2022/02/25 05:35:48;;;;;;;;;134.25;120.50;8.30;45.90;;;;;;4919441;29;9640;-66
2022/02/25 05:38:14;;;;;;;;;167.25;148.00;8.40;45.90;;;;;;4919158;29;8894;-65
2022/02/25 05:40:40;;;;;;;;;143.25;131.00;8.50;45.80;;;;;;4918600;29;8787;-66
2022/02/25 05:43:07;;;;;;;;;209.75;182.00;8.70;45.50;;;;;;4918595;29;8803;-68
2022/02/25 05:45:33;;;;;;;;;194.75;171.75;8.80;44.90;;;;;;4918993;29;8802;-67
2022/02/25 05:47:58;;;;;;;;;182.50;163.50;8.90;44.60;;;;;;4918708;29;8910;-67
2022/02/25 05:50:25;;;;;;;;;156.50;148.50;8.80;44.80;;;;;;4917906;29;8861;-65
2022/02/25 05:52:51;;;;;;;;;184.25;161.00;8.20;45.70;;;;;;4919454;29;8831;-67
2022/02/25 05:55:18;;;;;;;;;203.00;183.50;8.30;46.20;;;;;;4919312;29;8796;-65
2022/02/25 05:57:45;;;;;;;;;208.50;183.50;8.30;46.20;;;;;;4918794;29;9005;-67
2022/02/25 06:00:13;;;;;;;;;217.00;203.00;8.50;46.10;;;;;;4919255;29;8790;-65
2022/02/25 06:02:39;;;;;;;;;235.75;215.50;8.80;45.30;;;;;;4919271;29;8854;-66
2022/02/25 06:05:05;;;;;;;;;231.75;206.75;8.90;45.00;;;;;;4919074;29;8882;-67
2022/02/25 06:07:31;;;;;;;;;247.50;228.00;9.00;44.70;;;;;;4919305;29;9470;-65
2022/02/25 06:09:57;;;;;;;;;252.25;230.00;9.10;44.70;;;;;;4918810;29;8915;-66
2022/02/25 06:12:23;;;;;;;;;211.75;194.75;9.10;44.30;;;;;;4919243;29;8870;-66
2022/02/25 06:14:48;;;;;;;;;220.25;195.75;9.00;45.00;;;;;;4918759;29;9497;-66
2022/02/25 06:17:14;;;;;;;;;241.25;217.50;8.10;47.40;;;;;;4918765;29;8910;-68
2022/02/25 06:19:40;;;;;;;;;242.75;215.25;7.90;47.70;;;;;;4918958;29;8775;-70
2022/02/25 06:22:06;;;;;;;;;278.25;250.75;6.90;50.00;;;;;;4919025;29;8851;-71
2022/02/25 06:24:32;;;;;;;;;272.25;241.25;6.90;51.70;;;;;;4918734;29;9418;-71
2022/02/25 06:26:58;;;;;;;;;284.00;256.75;7.70;50.60;;;;;;4918706;29;8802;-73
2022/02/25 06:29:23;;;;;;;;;242.50;224.00;8.30;47.70;;;;;;4918731;29;8798;-68
2022/02/25 06:31:49;;;;;;;;;240.75;219.75;8.50;46.50;;;;;;4918880;29;8881;-65
2022/02/25 06:34:15;;;;;;;;;240.50;217.50;8.80;45.50;;;;;;4918480;29;8827;-68
2022/02/25 06:36:42;;;;;;;;;226.75;200.75;8.90;45.20;;;;;;4918472;29;8771;-68
2022/02/25 06:39:08;;;;;;;;;231.50;213.75;9.00;44.60;;;;;;4919042;29;8783;-70
2022/02/25 06:41:34;;;;;;;;;230.75;208.00;9.20;44.40;;;;;;4918371;29;9442;-71
2022/02/25 06:44:00;;;;;;;;;208.25;187.25;9.30;44.00;;;;;;4918461;29;8779;-71
2022/02/25 06:46:26;;;;;;;;;187.50;167.25;9.30;44.00;;;;;;4918167;29;8803;-71
2022/02/25 06:48:52;;;;;;;;;207.00;182.00;9.40;43.90;;;;;;4918441;29;8771;-72
2022/02/25 06:51:18;;;;;;;;;201.25;181.25;9.40;43.50;;;;;;4918473;29;8775;-71
2022/02/25 06:53:44;;;;;;;;;196.25;179.25;9.50;43.50;;;;;;4918784;29;8869;-70
2022/02/25 06:56:10;;;;;;;;;204.50;185.25;9.30;44.00;;;;;;4918402;29;8854;-71
2022/02/25 06:58:36;;;;;;;;;218.50;201.25;9.40;44.30;;;;;;4918339;29;8834;-67
2022/02/25 07:01:03;;;;;;;;;210.50;200.75;9.60;43.80;;;;;;4918131;29;8909;-68
2022/02/25 07:03:29;;;;;;;;;236.75;215.75;9.80;43.50;;;;;;4918411;29;9450;-68
2022/02/25 07:05:55;;;;;;;;;246.25;226.50;9.80;43.30;;;;;;4918162;29;8806;-67
2022/02/25 07:08:22;;;;;;;;;220.75;211.75;10.00;43.10;;;;;;4918157;29;8787;-66
2022/02/25 07:10:49;;;;;;;;;210.50;186.00;10.00;43.10;;;;;;4918113;29;8822;-67
2022/02/25 07:13:15;;;;;;;;;178.00;165.50;10.10;43.00;;;;;;4918131;29;8786;-66
2022/02/25 07:15:41;;;;;;;;;175.25;162.75;10.20;42.50;;;;;;4918096;29;8775;-66
2022/02/25 07:18:13;;;;;;;;;153.25;142.25;10.20;42.40;;;;;;4918185;29;8876;-66
2022/02/25 07:20:39;;;;;;;;;159.25;147.00;10.30;41.80;;;;;;4918233;29;9528;-65
2022/02/25 07:23:04;;;;;;;;;177.75;160.75;10.30;41.40;;;;;;4918178;29;8839;-66
2022/02/25 07:25:30;;;;;;;;;161.50;150.25;10.30;41.80;;;;;;4917911;29;8783;-67
2022/02/25 07:27:56;;;;;;;;;159.25;147.25;10.40;41.60;;;;;;4917991;29;8780;-67
2022/02/25 07:30:23;;;;;;;;;167.75;153.50;10.30;41.30;;;;;;4917959;29;8779;-67
2022/02/25 07:32:49;;;;;;;;;170.50;155.25;10.40;41.40;;;;;;4917729;29;8811;-66
2022/02/25 07:35:16;;;;;;;;;165.75;153.25;10.50;41.40;;;;;;4917871;29;8854;-66
2022/02/25 07:37:42;;;;;;;;;175.00;158.75;10.60;41.20;;;;;;4918073;29;8775;-65
2022/02/25 07:40:10;;;;;;;;;152.25;134.00;11.00;40.90;;;;;;4918083;29;8823;-67
2022/02/25 07:42:36;;;;;;;;;177.50;156.25;11.20;40.30;;;;;;4918047;29;8890;-66
2022/02/25 07:45:02;;;;;;;;;147.75;143.75;11.30;39.50;;;;;;4918088;29;8870;-67
2022/02/25 07:47:28;;;;;;;;;167.50;154.75;11.40;39.50;;;;;;4917777;29;8994;-67
2022/02/25 07:49:54;;;;;;;;;187.25;166.00;11.40;39.70;;;;;;4917756;29;8795;-67
2022/02/25 07:52:21;;;;;;;;;209.75;191.50;11.00;40.60;;;;;;4917735;29;8839;-68
2022/02/25 07:54:47;;;;;;;;;221.50;212.25;11.10;40.90;;;;;;4917704;29;8796;-65
2022/02/25 07:57:14;;;;;;;;;210.25;192.00;11.10;40.80;;;;;;4917742;29;8776;-66
2022/02/25 07:59:43;;;;;;;;;190.00;172.50;11.40;40.50;;;;;;4921507;29;8784;-68
2022/02/25 08:02:09;;;;;;;;;181.75;167.50;11.70;40.10;;;;;;4921269;29;8815;-66
2022/02/25 08:04:35;;;;;;;;;193.25;178.00;12.10;39.40;;;;;;4921260;29;8784;-66
2022/02/25 08:07:02;;;;;;;;;185.00;172.75;12.30;38.70;;;;;;4920781;29;8875;-69
2022/02/25 08:09:28;;;;;;;;;182.75;175.50;12.50;37.90;;;;;;4919722;29;8804;-67
2022/02/25 08:11:54;;;;;;;;;169.25;157.75;12.60;37.90;;;;;;4919957;29;8834;-67
2022/02/25 08:14:20;;;;;;;;;183.75;167.50;12.80;37.40;;;;;;4919848;29;8806;-69
2022/02/25 08:16:46;;;;;;;;;160.00;141.75;12.80;37.40;;;;;;4919770;29;8793;-67
2022/02/25 08:19:11;;;;;;;;;155.25;141.50;12.90;36.90;;;;;;4919782;29;8781;-69
2022/02/25 08:21:37;;;;;;;;;146.25;133.75;13.10;35.90;;;;;;4919645;29;8816;-69
2022/02/25 08:24:03;;;;;;;;;130.50;120.00;13.10;34.90;;;;;;4919768;29;8816;-67
2022/02/25 08:26:29;;;;;;;;;122.75;115.75;13.20;35.30;;;;;;4919570;29;8791;-67
2022/02/25 08:28:55;;;;;;;;;112.75;105.75;12.70;35.00;;;;;;4920434;29;8799;-70
2022/02/25 08:31:22;;;;;;;;;105.50;96.75;12.80;34.80;;;;;;4921176;29;8787;-70
2022/02/25 08:33:49;;;;;;;;;110.00;104.50;13.10;35.20;;;;;;4920674;29;8819;-67
2022/02/25 08:36:15;;;;;;;;;111.00;102.75;13.30;34.70;;;;;;4920873;29;8776;-69
2022/02/25 08:38:41;;;;;;;;;105.25;95.00;13.40;34.40;;;;;;4920950;29;8830;-70
2022/02/25 08:41:08;;;;;;;;;113.75;104.25;13.40;34.20;;;;;;4920562;29;8893;-69
2022/02/25 08:43:34;;;;;;;;;119.75;111.25;13.30;34.20;;;;;;4920684;29;8870;-70
2022/02/25 08:46:00;;;;;;;;;115.75;107.00;12.80;35.70;;;;;;4903836;29;8791;-66
2022/02/25 08:48:27;;;;;;;;;120.50;112.25;12.80;35.60;;;;;;4920753;29;8810;-66
2022/02/25 08:50:53;;;;;;;;;131.75;121.75;12.90;36.00;;;;;;4920516;29;8795;-68
2022/02/25 08:53:19;;;;;;;;;122.50;113.00;13.00;35.80;;;;;;4900382;29;8827;-68
2022/02/25 08:55:45;;;;;;;;;112.00;102.25;12.90;35.70;;;;;;4920670;29;8895;-65
2022/02/25 08:58:11;;;;;;;;;115.50;111.50;12.60;36.80;;;;;;4920257;29;8806;-65
2022/02/25 09:00:37;;;;;;;;;108.00;100.25;12.70;36.40;;;;;;4919009;29;8807;-64
2022/02/25 09:03:02;;;;;;;;;113.75;105.50;12.90;36.70;;;;;;4919130;29;8794;-65
2022/02/25 09:05:28;;;;;;;;;106.50;100.75;13.00;36.60;;;;;;4920088;29;8792;-65
2022/02/25 09:07:55;;;;;;;;;112.50;104.25;12.80;37.10;;;;;;4920097;29;8784;-65
2022/02/25 09:10:22;;;;;;;;;138.00;129.25;12.90;37.00;;;;;;4919287;29;8787;-66
2022/02/25 09:12:49;;;;;;;;;155.75;144.75;12.90;36.60;;;;;;4919901;29;9559;-67
2022/02/25 09:15:18;;;;;;;;;133.25;119.75;12.60;38.00;;;;;;4903368;29;9422;-65
2022/02/25 09:17:44;;;;;;;;;105.75;98.25;12.80;37.20;;;;;;4920236;29;9442;-68
2022/02/25 09:20:10;;;;;;;;;109.25;100.25;12.60;37.40;;;;;;4919900;29;8878;-65
2022/02/25 09:22:36;;;;;;;;;97.50;90.25;12.10;38.60;;;;;;4920224;29;8845;-65
2022/02/25 09:25:03;;;;;;;;;100.75;94.25;12.10;39.50;;;;;;4920035;29;8791;-66
2022/02/25 09:27:29;;;;;;;;;94.00;85.50;12.40;39.40;;;;;;4919330;29;8787;-66
2022/02/25 09:29:56;;;;;;;;;89.75;77.75;11.60;40.80;;;;;;4919823;29;8802;-64
2022/02/25 09:32:22;;;;;;;;;92.50;89.25;11.30;42.30;;;;;;4919314;29;8854;-65
2022/02/25 09:34:48;;;;;;;;;88.50;80.25;11.50;42.80;;;;;;4919622;29;8787;-63
2022/02/25 09:37:14;;;;;;;;;81.75;65.75;12.10;41.00;;;;;;4919950;29;8767;-64
2022/02/25 09:39:40;;;;;;;;;72.00;59.75;12.40;40.20;;;;;;4919681;29;8811;-63
2022/02/25 09:42:07;;;;;;;;;72.25;57.50;12.70;39.50;;;;;;4919614;29;8851;-63
2022/02/25 09:44:34;;;;;;;;;77.00;61.00;13.00;39.00;;;;;;4919621;29;8803;-65
2022/02/25 09:47:01;;;;;;;;;73.00;58.50;13.20;38.50;;;;;;4919348;29;8815;-65
2022/02/25 09:49:27;;;;;;;;;79.00;64.00;13.50;37.90;;;;;;4919587;29;9454;-65
2022/02/25 09:51:55;;;;;;;;;71.00;55.50;13.20;37.30;;;;;;4919532;29;9660;-65
2022/02/25 09:54:21;;;;;;;;;64.00;52.50;13.00;36.40;;;;;;4919618;29;8790;-65
2022/02/25 09:56:48;;;;;;;;;63.75;51.75;13.20;36.70;;;;;;4919206;29;8799;-64
2022/02/25 09:59:16;;;;;;;;;66.75;53.75;13.20;36.50;;;;;;4901184;29;8783;-65
2022/02/25 10:01:43;;;;;;;;;53.75;45.00;13.70;35.80;;;;;;4919334;29;9485;-65
2022/02/25 10:04:19;;;;;;;;;53.50;44.00;14.00;35.50;;;;;;4919112;29;8798;-65
2022/02/25 10:06:46;;;;;;;;;58.00;47.00;14.30;35.50;;;;;;4919146;29;8885;-66
2022/02/25 10:09:12;;;;;;;;;65.25;52.50;13.70;33.00;;;;;;4919076;29;8779;-65
2022/02/25 10:11:57;;;;;;;;;42.25;36.25;13.60;34.70;;;;;;4919278;29;8771;-64
2022/02/25 10:14:30;;;;;;;;;55.00;45.00;13.50;35.30;;;;;;4919269;29;8779;-65
2022/02/25 10:17:16;;;;;;;;;52.25;43.00;13.20;35.10;;;;;;4919147;29;8854;-65
2022/02/25 10:19:44;;;;;;;;;48.75;39.25;13.90;35.20;;;;;;4919187;29;8776;-65
2022/02/25 10:22:27;;;;;;;;;47.25;40.00;14.00;34.10;;;;;;4918945;29;8843;-64
2022/02/25 10:25:00;;;;;;;;;44.75;37.00;13.70;33.30;;;;;;4918607;29;8881;-65
2022/02/25 10:27:38;;;;;;;;;55.00;46.00;14.00;34.00;;;;;;4918957;29;8846;-64
2022/02/25 10:30:13;;;;;;;;;47.75;40.25;13.90;34.50;;;;;;4918730;29;8791;-64
2022/02/25 10:32:49;;;;;;;;;53.00;43.75;14.20;33.90;;;;;;4918690;29;8819;-63
2022/02/25 10:35:24;;;;;;;;;48.00;40.50;15.00;33.20;;;;;;4918887;29;8783;-66
2022/02/25 10:38:14;;;;;;;;;46.75;39.25;15.30;32.90;;;;;;4918614;29;8791;-65
2022/02/25 10:40:43;;;;;;;;;50.00;41.25;16.20;31.30;;;;;;4918531;29;8827;-65
2022/02/25 10:43:23;;;;;;;;;49.75;42.25;20.60;28.20;;;;;;4901877;29;8807;-65
2022/02/25 10:45:54;;;;;;;;;50.75;41.75;26.50;22.70;;;;;;4918738;29;8780;-65
2022/02/25 10:48:28;;;;;;;;;51.75;41.50;30.00;19.90;;;;;;4918370;29;8818;-66
2022/02/25 10:50:59;;;;;;;;;46.00;39.33;32.60;18.30;;;;;;4918424;29;8787;-66
2022/02/25 10:53:27;;;;;;;;;47.00;40.33;33.10;16.90;;;;;;4918277;29;8803;-66
2022/02/25 10:56:08;;;;;;;;;40.00;35.33;30.90;17.40;;;;;;4918490;29;8778;-67
2022/02/25 10:58:56;;;;;;;;;39.00;35.00;25.70;19.20;;;;;;4918384;29;8791;-65
2022/02/25 11:01:32;;;;;;;;;44.00;38.00;23.10;22.10;;;;;;4918424;29;8834;-66
2022/02/25 11:04:03;;;;;;;;;43.00;37.00;21.10;24.60;;;;;;4918212;29;8821;-66
2022/02/25 11:06:30;;;;;;;;;33.67;32.00;20.10;25.10;;;;;;4918171;29;8889;-65
2022/02/25 11:08:57;;;;;;;;;38.00;34.00;19.30;26.50;;;;;;4918340;29;8790;-66
2022/02/25 11:11:24;;;;;;;;;36.33;33.33;20.20;26.60;;;;;;4918296;29;9523;-65
2022/02/25 11:13:50;;;;;;;;;40.67;36.00;24.60;23.10;;;;;;4918073;29;8787;-65
2022/02/25 11:16:18;;;;;;;;;40.33;35.67;27.40;20.50;;;;;;4918095;29;8902;-67
2022/02/25 11:18:46;;;;;;;;;34.00;32.00;29.10;19.90;;;;;;4918101;29;8763;-67
2022/02/25 11:21:13;;;;;;;;;34.33;32.00;30.10;18.50;;;;;;4917901;29;8898;-69
2022/02/25 11:23:43;;;;;;;;;38.67;34.67;31.90;17.60;;;;;;4917325;29;8934;-68
2022/02/25 11:26:13;;;;;;;;;37.00;34.00;33.50;17.10;;;;;;4917898;29;8882;-71
2022/02/25 11:28:41;;;;;;;;;37.67;34.33;35.90;16.30;;;;;;4918148;29;9503;-70
2022/02/25 11:31:26;;;;;;;;;29.00;28.67;34.40;15.50;;;;;;4918117;29;8800;-69
2022/02/25 11:33:54;;;;;;;;;33.00;31.00;32.90;16.40;;;;;;4901492;29;8852;-69
2022/02/25 11:36:41;;;;;;;;;32.33;31.33;31.10;16.50;;;;;;4902836;29;8797;-69
2022/02/25 11:39:28;;;;;;;;;29.33;29.00;33.20;16.30;;;;;;4902516;29;8844;-69
2022/02/25 11:41:57;;;;;;;;;34.00;31.33;35.00;16.10;;;;;;4902637;29;8817;-70
2022/02/25 11:44:24;;;;;;;;;36.00;33.33;35.90;15.10;;;;;;4903051;29;9538;-68
2022/02/25 11:46:51;;;;;;;;;29.00;28.67;37.20;14.70;;;;;;4902677;29;8904;-69
2022/02/25 11:49:23;;;;;;;;;24.33;24.33;36.00;14.70;;;;;;4902659;29;8802;-68
2022/02/25 11:51:49;;;;;;;;;31.00;30.33;35.80;14.30;;;;;;4902771;29;8827;-70
2022/02/25 11:54:24;;;;;;;;;28.00;28.00;35.80;14.50;;;;;;4902592;29;8768;-70
2022/02/25 11:57:04;;;;;;;;;31.00;30.67;35.50;14.40;;;;;;4902428;29;8793;-78
2022/02/25 11:59:33;;;;;;;;;27.00;27.00;35.90;14.90;;;;;;4902550;29;8911;-72
2022/02/25 12:02:16;;;;;;;;;30.33;29.67;37.40;14.80;;;;;;4902486;29;8809;-73
2022/02/25 12:04:48;;;;;;;;;23.33;23.33;36.10;14.30;;;;;;4902414;29;8798;-72
2022/02/25 12:07:17;;;;;;;;;32.33;31.33;35.90;14.10;;;;;;4902554;29;8793;-73
2022/02/25 12:09:50;;;;;;;;;23.33;23.33;34.20;15.00;;;;;;4902368;29;8811;-72
2022/02/25 12:12:28;;;;;;;;;33.67;31.67;33.70;14.80;;;;;;4902283;29;8809;-71
2022/02/25 12:15:04;;;;;;;;;27.00;27.00;33.60;15.30;;;;;;4902217;29;8774;-72
2022/02/25 12:17:55;;;;;;;;;32.67;31.67;34.50;14.80;;;;;;4902430;29;8812;-71
2022/02/25 12:20:33;;;;;;;;;31.00;30.00;34.60;14.70;;;;;;4901942;29;8817;-72
2022/02/25 12:23:00;;;;;;;;;29.67;29.33;37.10;14.00;;;;;;4902764;29;8817;-73
2022/02/25 12:25:43;;;;;;;;;32.33;31.33;38.30;13.60;;;;;;4902086;29;8817;-72
2022/02/25 12:28:27;;;;;;;;;31.33;30.00;37.20;13.20;;;;;;4902106;29;8974;-72
2022/02/25 12:31:00;;;;;;;;;36.00;33.00;33.70;14.60;;;;;;4901998;29;8777;-72
2022/02/25 12:33:36;;;;;;;;;34.00;32.33;34.90;15.00;;;;;;4901646;29;8972;-72
2022/02/25 12:36:06;;;;;;;;;31.67;31.00;35.30;14.70;;;;;;4902187;29;9582;-73
2022/02/25 12:38:38;;;;;;;;;33.33;32.00;35.30;14.20;;;;;;4902110;29;8785;-73
2022/02/25 12:41:16;;;;;;;;;34.67;32.00;36.70;14.40;;;;;;4901947;29;9449;-73